Airfield :
LOGIN :

Register | Disclaimer

   EN    FR    IT 

 










Legend :    VFR   Marginal VFR   IFR   Intensive IFR   Very Intensive IFR
Visi :
Ceiling :
>= 8 km
>= 3000ft
5 to 8 km
1000 to 3000 ft
1500m to 5 km
500 to 1000 ft
800 to 1500m
200 to 500 ft
< 800m
< 200 ft
Symbols :   Thunderstorms  Fog  Heavy snow  Heavy precipitations  Wind > 20 kt
SIGMETs :     Misc.  Thunderstorms  Icing  Turbulence  Mountain Waves  Volcanic Ashes







- Airport Elevation : 600 ft
- IATA code : VIE


LOWW - Vienna Schwechat

CURRENT METAR :
  • 200920Z 28019KT 9999 FEW022 SCT045 BKN050 06/00 Q1018 NOSIG

EXPIRED METARs :
  • 200850Z 28016KT 9999 FEW022 SCT045 BKN050 06/01 Q1018 NOSIG
  • 200820Z 28016KT 9999 FEW022 OVC060 05/01 Q1018 NOSIG
  • 200750Z 28018KT 9999 FEW022 BKN050 05/01 Q1018 NOSIG
  • 200720Z 28018KT 9999 VCSH FEW024 SCT048 BKN050 05/00 Q1017 NOSIG
  • 200650Z 29017KT 9999 FEW042 SCT048 BKN060 05/00 Q1017 NOSIG

TAF TAF LOWW
Valid from the 20 at 06:00 until the 21 at 12:00 UTC


200515Z 2006/2112 29015G25KT 9999 SCT030 BKN050 TX09/2112Z TN01/2104Z
PROB40
TEMPO 2006/2008 29022G32KT SHRA SCT030TCU BKN040
BECMG 2011/2013 28012KT CAVOK
BECMG 2020/2022 8000 -RA SCT020 OVC030
PROB30
TEMPO 2022/2103 25005KT 4000 RA FEW010 BKN014
TEMPO 2103/2112 29015G25KT
No reported NOTAMs for that airfield.



MET'MAP, your aeronautical weather chart ! - Copyright ORBIFLY December 2007 - Disclaimer

ORBIFLY MET'MAP TEAM :

Programming & Development : Alexandra Zaïnal
Concept & Development : Baudouin d'Aumeries
Co-Development & Prog : Marc-Olivier Méhu
Technical & hardware support : Manuel Goepfert

Contact : metmap@orbifly.com




SOURCES & CREDITS :

   NOAA